createdAt,value
2022-10-05T00:01:32.911Z,99.90
2022-10-05T00:04:12.038Z,99.90
2022-10-05T00:06:40.748Z,99.90
2022-10-05T00:09:14.801Z,99.90
2022-10-05T00:11:43.378Z,99.90
2022-10-05T00:14:19.911Z,99.90
2022-10-05T00:16:48.684Z,99.90
2022-10-05T00:19:32.045Z,99.90
2022-10-05T00:22:12.054Z,99.90
2022-10-05T00:24:40.681Z,99.90
2022-10-05T00:27:16.079Z,99.90
2022-10-05T00:29:44.725Z,99.90
2022-10-05T00:32:13.294Z,99.90
2022-10-05T00:34:42.012Z,99.90
2022-10-05T00:37:10.669Z,99.90
2022-10-05T00:39:40.302Z,99.90
2022-10-05T00:42:24.879Z,99.90
2022-10-05T00:44:56.358Z,99.90
2022-10-05T00:47:43.364Z,99.90
2022-10-05T00:50:30.193Z,99.90
2022-10-05T00:52:58.742Z,99.90
2022-10-05T00:55:30.302Z,99.90
2022-10-05T00:58:01.854Z,99.90
2022-10-05T01:00:30.454Z,99.90
2022-10-05T01:03:09.132Z,99.90
2022-10-05T01:05:46.703Z,99.90
2022-10-05T01:08:21.925Z,99.90
2022-10-05T01:11:09.959Z,99.90
2022-10-05T01:13:44.695Z,99.90
2022-10-05T01:16:31.519Z,99.90
2022-10-05T01:19:14.982Z,99.90
2022-10-05T01:21:48.965Z,99.90
2022-10-05T01:24:23.640Z,99.90
2022-10-05T01:27:01.852Z,99.90
2022-10-05T01:29:41.148Z,99.90
2022-10-05T01:32:19.973Z,99.90
2022-10-05T01:34:59.097Z,99.90
2022-10-05T01:37:37.149Z,99.90
2022-10-05T01:40:16.927Z,99.90
2022-10-05T01:43:03.635Z,99.90
2022-10-05T01:45:41.187Z,99.90
2022-10-05T01:48:15.853Z,99.90
2022-10-05T01:50:55.856Z,99.90
2022-10-05T01:53:43.985Z,99.90
2022-10-05T01:56:27.704Z,99.90
2022-10-05T01:59:05.472Z,99.90
2022-10-05T02:01:40.323Z,99.90
2022-10-05T02:04:37.040Z,99.90
2022-10-05T02:07:09.801Z,99.90
2022-10-05T02:09:41.319Z,99.90
2022-10-05T02:12:14.203Z,99.90
2022-10-05T02:14:45.885Z,99.90
2022-10-05T02:17:20.967Z,99.90
2022-10-05T02:19:52.631Z,99.90
2022-10-05T02:22:33.038Z,99.90
2022-10-05T02:25:04.661Z,99.90
2022-10-05T02:27:34.729Z,99.20
2022-10-05T02:30:05.079Z,99.50
2022-10-05T02:32:41.105Z,98.70
2022-10-05T02:35:15.691Z,98.10
2022-10-05T02:37:44.702Z,97.40
2022-10-05T02:40:31.981Z,97.30
2022-10-05T02:43:21.536Z,97.60
2022-10-05T02:46:05.352Z,97.40
2022-10-05T02:48:50.106Z,98.00
2022-10-05T02:51:26.788Z,97.20
2022-10-05T02:53:58.878Z,97.50
2022-10-05T02:56:46.032Z,97.30
2022-10-05T02:59:28.494Z,97.60
2022-10-05T03:02:06.204Z,96.80
2022-10-05T03:04:41.732Z,96.50
2022-10-05T03:07:14.991Z,96.10
2022-10-05T03:09:46.986Z,93.50
2022-10-05T03:12:26.155Z,93.10
2022-10-05T03:14:54.793Z,93.30
2022-10-05T03:17:25.533Z,92.50
2022-10-05T03:19:57.196Z,92.70
2022-10-05T03:22:39.980Z,92.30
2022-10-05T03:25:11.608Z,92.30
2022-10-05T03:27:49.407Z,91.30
2022-10-05T03:30:24.180Z,89.90
2022-10-05T03:33:10.974Z,91.30
2022-10-05T03:35:45.707Z,91.90
2022-10-05T03:38:17.613Z,92.10
2022-10-05T03:40:54.819Z,90.50
2022-10-05T03:43:35.345Z,90.40
2022-10-05T03:46:04.010Z,92.00
2022-10-05T03:48:41.220Z,92.20
2022-10-05T03:51:16.300Z,89.80
2022-10-05T03:53:51.231Z,90.20
2022-10-05T03:56:26.014Z,86.90
2022-10-05T03:58:57.651Z,89.90
2022-10-05T04:01:35.253Z,90.40
2022-10-05T04:04:06.479Z,89.50
2022-10-05T04:06:37.207Z,90.40
2022-10-05T04:09:13.307Z,91.50
2022-10-05T04:11:50.428Z,91.20
2022-10-05T04:14:27.360Z,88.40
2022-10-05T04:16:59.402Z,90.00
2022-10-05T04:19:38.799Z,88.90
2022-10-05T04:22:19.087Z,88.10
2022-10-05T04:24:47.585Z,89.40
2022-10-05T04:27:34.548Z,90.60
2022-10-05T04:30:14.912Z,91.50
2022-10-05T04:32:46.133Z,90.90
2022-10-05T04:35:14.704Z,91.10
2022-10-05T04:38:02.077Z,90.40
2022-10-05T04:40:33.915Z,89.90
2022-10-05T04:43:17.804Z,87.10
2022-10-05T04:46:04.449Z,88.60
2022-10-05T04:48:46.079Z,89.30
2022-10-05T04:51:14.603Z,90.50
2022-10-05T04:53:55.191Z,90.80
2022-10-05T04:56:34.168Z,89.60
2022-10-05T04:59:18.158Z,89.10
2022-10-05T05:01:52.308Z,88.40
2022-10-05T05:04:39.419Z,87.40
2022-10-05T05:07:19.204Z,89.90
2022-10-05T05:10:06.142Z,90.10
2022-10-05T05:12:49.428Z,90.50
2022-10-05T05:15:30.349Z,88.50
2022-10-05T05:18:17.140Z,90.20
2022-10-05T05:21:03.907Z,88.60
2022-10-05T05:23:45.880Z,88.70
2022-10-05T05:26:36.761Z,88.70
2022-10-05T05:29:10.164Z,90.60
2022-10-05T05:31:45.475Z,91.20
2022-10-05T05:34:19.928Z,91.40
2022-10-05T05:36:58.054Z,91.20
2022-10-05T05:39:30.797Z,91.10
2022-10-05T05:42:02.629Z,90.60
2022-10-05T05:44:38.609Z,91.00
2022-10-05T05:47:21.466Z,90.90
2022-10-05T05:50:06.600Z,91.10
2022-10-05T05:52:51.154Z,90.10
2022-10-05T05:55:37.148Z,90.00
2022-10-05T05:58:24.656Z,90.30
2022-10-05T06:00:59.870Z,90.60
2022-10-05T06:03:41.466Z,90.50
2022-10-05T06:06:15.746Z,90.70
2022-10-05T06:08:47.087Z,90.20
2022-10-05T06:11:21.863Z,91.60
2022-10-05T06:13:51.019Z,91.40
2022-10-05T06:16:30.100Z,90.90
2022-10-05T06:19:05.702Z,90.20
2022-10-05T06:21:39.799Z,90.00
2022-10-05T06:24:08.501Z,90.50
2022-10-05T06:26:40.744Z,90.70
2022-10-05T06:29:12.721Z,90.70
2022-10-05T06:31:47.220Z,87.30
2022-10-05T06:34:19.607Z,87.30
2022-10-05T06:36:52.742Z,87.60
2022-10-05T06:39:24.333Z,88.50
2022-10-05T06:42:11.364Z,90.40
2022-10-05T06:44:46.158Z,89.30
2022-10-05T06:47:32.948Z,88.70
2022-10-05T06:50:19.699Z,90.40
2022-10-05T06:52:48.219Z,89.40
2022-10-05T06:55:39.100Z,88.50
2022-10-05T06:58:24.016Z,89.80
2022-10-05T07:00:55.728Z,87.60
2022-10-05T07:03:49.218Z,87.00
2022-10-05T07:06:35.425Z,83.20
2022-10-05T07:09:03.962Z,84.20
2022-10-05T07:11:58.360Z,81.40
2022-10-05T07:14:46.822Z,84.20
2022-10-05T07:17:24.363Z,84.20
2022-10-05T07:19:55.992Z,82.50
2022-10-05T07:22:36.662Z,81.80
2022-10-05T07:25:05.151Z,80.40
2022-10-05T07:27:47.080Z,80.40
2022-10-05T07:30:17.313Z,80.70
2022-10-05T07:32:56.841Z,82.80
2022-10-05T07:35:49.759Z,82.80
2022-10-05T07:38:18.729Z,81.80
2022-10-05T07:40:51.037Z,83.30
2022-10-05T07:44:00.869Z,83.40
2022-10-05T07:46:45.693Z,83.30
2022-10-05T07:49:17.601Z,83.20
2022-10-05T07:51:49.749Z,82.80
2022-10-05T07:54:27.550Z,83.50
2022-10-05T07:57:01.096Z,84.00
2022-10-05T07:59:36.838Z,84.70
2022-10-05T08:02:24.141Z,84.40
2022-10-05T08:04:57.357Z,86.80
2022-10-05T08:07:35.239Z,85.80
2022-10-05T08:10:22.110Z,81.80
2022-10-05T08:13:00.273Z,81.70
2022-10-05T08:15:33.576Z,84.00
2022-10-05T08:18:04.134Z,84.30
2022-10-05T08:20:40.853Z,83.50
2022-10-05T08:23:12.647Z,83.80
2022-10-05T08:25:48.060Z,84.90
2022-10-05T08:28:27.148Z,85.60
2022-10-05T08:31:05.462Z,83.80
2022-10-05T08:33:39.071Z,80.30
2022-10-05T08:36:14.372Z,80.20
2022-10-05T08:38:44.438Z,80.00
2022-10-05T08:41:31.291Z,80.20
2022-10-05T08:44:25.707Z,81.40
2022-10-05T08:47:06.821Z,81.40
2022-10-05T08:49:35.488Z,81.20
2022-10-05T08:52:26.075Z,82.70
2022-10-05T08:54:54.750Z,82.70
2022-10-05T08:57:29.338Z,82.50
2022-10-05T09:00:00.759Z,83.60
2022-10-05T09:02:46.600Z,83.00
2022-10-05T09:05:39.645Z,83.20
2022-10-05T09:08:21.869Z,86.00
2022-10-05T09:10:50.411Z,84.70
2022-10-05T09:13:37.221Z,84.10
2022-10-05T09:16:05.796Z,82.90
2022-10-05T09:18:51.056Z,81.60
2022-10-05T09:21:35.102Z,81.40
2022-10-05T09:24:12.320Z,80.70
2022-10-05T09:26:47.072Z,81.20
2022-10-05T09:29:24.723Z,80.60
2022-10-05T09:32:16.249Z,82.30
2022-10-05T09:34:54.906Z,82.30
2022-10-05T09:37:35.821Z,81.70
2022-10-05T09:40:19.271Z,82.40
2022-10-05T09:42:50.888Z,82.90
2022-10-05T09:45:21.514Z,83.10
2022-10-05T09:48:01.012Z,83.20
2022-10-05T09:50:32.622Z,81.50
2022-10-05T09:53:01.192Z,81.50
2022-10-05T09:55:37.295Z,80.80
2022-10-05T09:58:25.967Z,80.70
2022-10-05T10:01:09.033Z,81.30
2022-10-05T10:03:59.693Z,81.70
2022-10-05T10:06:40.493Z,81.40
2022-10-05T10:09:18.721Z,80.90
2022-10-05T10:12:10.166Z,83.30
2022-10-05T10:15:01.906Z,82.00
2022-10-05T10:17:48.278Z,81.10
2022-10-05T10:20:23.761Z,82.60
2022-10-05T10:23:04.453Z,83.10
2022-10-05T10:25:35.957Z,83.00
2022-10-05T10:28:04.552Z,83.00
2022-10-05T10:30:56.073Z,83.80
2022-10-05T10:33:36.929Z,84.40
2022-10-05T10:36:15.210Z,85.00
2022-10-05T10:38:56.489Z,85.30
2022-10-05T10:41:34.039Z,85.20
2022-10-05T10:44:20.868Z,85.60
2022-10-05T10:47:03.845Z,86.00
2022-10-05T10:49:32.573Z,86.30
2022-10-05T10:52:22.989Z,86.70
2022-10-05T10:55:07.371Z,87.20
2022-10-05T10:57:35.910Z,88.40
2022-10-05T11:00:10.104Z,87.70
2022-10-05T11:02:50.738Z,88.30
2022-10-05T11:05:31.300Z,88.50
2022-10-05T11:08:18.023Z,88.80
2022-10-05T11:11:01.762Z,89.20
2022-10-05T11:13:40.229Z,89.80
2022-10-05T11:16:19.627Z,90.10
2022-10-05T11:19:05.390Z,90.20
2022-10-05T11:21:40.357Z,90.40
2022-10-05T11:24:15.096Z,90.50
2022-10-05T11:26:43.660Z,90.60
2022-10-05T11:29:33.465Z,90.70
2022-10-05T11:32:19.339Z,90.80
2022-10-05T11:35:13.849Z,90.90
2022-10-05T11:37:42.463Z,91.00
2022-10-05T11:40:26.054Z,91.10
2022-10-05T11:43:09.589Z,91.20
2022-10-05T11:45:41.202Z,91.40
2022-10-05T11:48:28.294Z,91.40
2022-10-05T11:51:10.439Z,91.50
2022-10-05T11:53:43.907Z,91.50
2022-10-05T11:56:23.008Z,91.50
2022-10-05T11:59:09.287Z,91.60
2022-10-05T12:01:41.990Z,91.70
2022-10-05T12:04:19.806Z,91.80
2022-10-05T12:07:06.638Z,91.80
2022-10-05T12:10:07.105Z,91.90
2022-10-05T12:12:39.383Z,92.00
2022-10-05T12:15:16.406Z,92.10
2022-10-05T12:17:54.302Z,92.20
2022-10-05T12:20:25.959Z,92.30
2022-10-05T12:23:00.397Z,92.40
2022-10-05T12:25:35.011Z,92.50
2022-10-05T12:28:06.200Z,92.50
2022-10-05T12:30:53.199Z,92.60
2022-10-05T12:33:25.086Z,92.70
2022-10-05T12:36:11.712Z,92.70
2022-10-05T12:38:46.028Z,92.80
2022-10-05T12:41:26.470Z,92.80
2022-10-05T12:43:59.950Z,92.90
2022-10-05T12:46:31.635Z,92.90
2022-10-05T12:49:18.471Z,93.00
2022-10-05T12:51:55.386Z,93.00
2022-10-05T12:54:33.095Z,93.10
2022-10-05T12:57:07.096Z,93.30
2022-10-05T12:59:42.396Z,93.30
2022-10-05T13:02:20.334Z,93.40
2022-10-05T13:05:06.922Z,93.40
2022-10-05T13:07:46.516Z,93.50
2022-10-05T13:10:26.235Z,93.60
2022-10-05T13:13:03.966Z,93.70
2022-10-05T13:15:42.347Z,93.90
2022-10-05T13:18:29.044Z,94.00
2022-10-05T13:21:13.628Z,94.00
2022-10-05T13:23:44.988Z,94.10
2022-10-05T13:26:25.838Z,94.20
2022-10-05T13:29:00.395Z,94.40
2022-10-05T13:31:37.802Z,94.60
2022-10-05T13:34:15.199Z,94.80
2022-10-05T13:36:49.791Z,94.90
2022-10-05T13:39:36.644Z,94.90
2022-10-05T13:42:14.682Z,95.10
2022-10-05T13:44:55.864Z,95.10
2022-10-05T13:47:30.624Z,95.20
2022-10-05T13:50:02.501Z,95.30
2022-10-05T13:52:31.177Z,95.30
2022-10-05T13:55:20.363Z,95.30
2022-10-05T13:57:48.912Z,95.70
2022-10-05T14:00:22.743Z,95.50
2022-10-05T14:02:57.759Z,95.70
2022-10-05T14:05:28.096Z,95.70
2022-10-05T14:07:56.664Z,95.80
2022-10-05T14:10:39.553Z,95.90
2022-10-05T14:13:20.943Z,95.90
2022-10-05T14:16:07.628Z,95.90
2022-10-05T14:18:38.577Z,96.00
2022-10-05T14:21:17.914Z,96.60
2022-10-05T14:23:46.655Z,97.00
2022-10-05T14:26:19.676Z,97.10
2022-10-05T14:29:17.251Z,97.40
2022-10-05T14:31:52.495Z,97.80
2022-10-05T14:34:37.783Z,97.80
2022-10-05T14:37:19.751Z,97.90
2022-10-05T14:39:49.708Z,98.20
2022-10-05T14:42:20.568Z,98.50
2022-10-05T14:45:09.199Z,98.60
2022-10-05T14:47:46.568Z,98.50
2022-10-05T14:50:26.745Z,98.60
2022-10-05T14:53:05.566Z,98.70
2022-10-05T14:55:43.880Z,98.70
2022-10-05T14:58:18.687Z,98.60
2022-10-05T15:00:59.939Z,98.70
2022-10-05T15:03:34.443Z,98.80
2022-10-05T15:06:04.851Z,98.80
2022-10-05T15:08:38.762Z,98.80
2022-10-05T15:11:14.200Z,98.80
2022-10-05T15:13:44.042Z,99.10
2022-10-05T15:16:18.796Z,98.80
2022-10-05T15:18:59.647Z,98.70
2022-10-05T15:21:28.182Z,98.70
2022-10-05T15:24:04.732Z,98.70
2022-10-05T15:26:42.397Z,98.90
2022-10-05T15:29:30.593Z,98.90
2022-10-05T15:32:15.864Z,99.00
2022-10-05T15:34:57.785Z,98.90
2022-10-05T15:37:26.279Z,98.90
2022-10-05T15:39:58.438Z,99.00
2022-10-05T15:42:35.852Z,99.30
2022-10-05T15:45:25.664Z,99.30
2022-10-05T15:48:14.055Z,99.20
2022-10-05T15:50:46.377Z,99.20
2022-10-05T15:53:17.729Z,99.20
2022-10-05T15:55:52.338Z,99.20
2022-10-05T15:58:39.850Z,99.20
2022-10-05T16:01:18.766Z,99.20
2022-10-05T16:03:50.824Z,99.20
2022-10-05T16:06:52.571Z,99.30
2022-10-05T16:09:28.271Z,99.30
2022-10-05T16:12:00.257Z,99.30
2022-10-05T16:14:41.041Z,99.20
2022-10-05T16:17:27.722Z,99.00
2022-10-05T16:20:05.390Z,98.70
2022-10-05T16:22:34.223Z,98.40
2022-10-05T16:25:11.508Z,98.40
2022-10-05T16:27:49.376Z,98.20
2022-10-05T16:30:19.855Z,98.20
2022-10-05T16:32:51.511Z,98.20
2022-10-05T16:35:38.884Z,98.20
2022-10-05T16:38:16.518Z,98.30
2022-10-05T16:41:02.152Z,98.40
2022-10-05T16:43:36.681Z,98.40
2022-10-05T16:46:11.038Z,98.50
2022-10-05T16:48:42.520Z,98.70
2022-10-05T16:51:11.136Z,98.70
2022-10-05T16:53:46.264Z,98.90
2022-10-05T16:56:20.619Z,99.00
2022-10-05T16:58:49.192Z,99.10
2022-10-05T17:01:25.824Z,99.20
2022-10-05T17:04:08.550Z,99.30
2022-10-05T17:06:41.752Z,99.30
2022-10-05T17:09:20.945Z,99.20
2022-10-05T17:12:04.771Z,99.40
2022-10-05T17:14:37.456Z,99.70
2022-10-05T17:17:05.959Z,99.90
2022-10-05T17:19:37.636Z,99.90
2022-10-05T17:22:24.751Z,99.90
2022-10-05T17:25:02.480Z,99.90
2022-10-05T17:27:36.807Z,99.90
2022-10-05T17:30:22.398Z,99.90
2022-10-05T17:33:06.312Z,99.90
2022-10-05T17:35:44.247Z,99.90
2022-10-05T17:38:15.482Z,99.90
2022-10-05T17:41:07.466Z,99.90
2022-10-05T17:43:36.130Z,99.90
2022-10-05T17:46:07.358Z,99.90
2022-10-05T17:48:51.216Z,99.90
2022-10-05T17:52:00.843Z,99.90
2022-10-05T17:54:51.790Z,99.90
2022-10-05T17:57:22.746Z,99.90
2022-10-05T17:59:54.260Z,99.90
2022-10-05T18:02:38.695Z,99.90
2022-10-05T18:05:13.746Z,99.90
2022-10-05T18:07:43.298Z,99.90
2022-10-05T18:10:14.361Z,99.90
2022-10-05T18:12:47.965Z,99.90
2022-10-05T18:15:36.281Z,99.90
2022-10-05T18:18:35.174Z,99.90
2022-10-05T18:21:15.635Z,99.90
2022-10-05T18:23:51.168Z,99.90
2022-10-05T18:26:25.863Z,99.90
2022-10-05T18:28:54.422Z,99.90
2022-10-05T18:31:41.493Z,99.90
2022-10-05T18:34:28.166Z,99.90
2022-10-05T18:37:04.565Z,99.90
2022-10-05T18:39:45.167Z,99.90
2022-10-05T18:42:28.396Z,99.90
2022-10-05T18:45:15.321Z,99.90
2022-10-05T18:48:02.130Z,99.90
2022-10-05T18:50:48.819Z,99.90
2022-10-05T18:53:20.594Z,99.90
2022-10-05T18:55:57.414Z,99.90
2022-10-05T18:58:28.168Z,99.90
2022-10-05T19:01:00.085Z,99.90
2022-10-05T19:03:41.451Z,99.90
2022-10-05T19:06:15.466Z,99.90
2022-10-05T19:09:02.494Z,99.90
2022-10-05T19:11:36.993Z,99.90
2022-10-05T19:14:06.721Z,99.90
2022-10-05T19:16:42.328Z,99.90
2022-10-05T19:19:33.457Z,99.90
2022-10-05T19:22:05.491Z,99.90
2022-10-05T19:24:34.511Z,99.90
2022-10-05T19:27:07.917Z,99.90
2022-10-05T19:29:45.508Z,99.90
2022-10-05T19:32:26.413Z,99.90
2022-10-05T19:35:13.442Z,99.90
2022-10-05T19:37:42.111Z,99.90
2022-10-05T19:40:28.748Z,99.90
2022-10-05T19:43:03.083Z,99.90
2022-10-05T19:45:34.533Z,99.90
2022-10-05T19:48:21.554Z,99.90
2022-10-05T19:50:57.140Z,99.90
2022-10-05T19:53:28.634Z,99.90
2022-10-05T19:55:57.239Z,99.90
2022-10-05T19:58:27.655Z,99.90
2022-10-05T20:01:00.736Z,99.90
2022-10-05T20:03:33.755Z,99.90
2022-10-05T20:06:03.813Z,99.90
2022-10-05T20:08:40.519Z,99.90
2022-10-05T20:11:15.357Z,99.90
2022-10-05T20:13:46.603Z,99.90
2022-10-05T20:16:36.309Z,99.90
2022-10-05T20:19:24.629Z,99.90
2022-10-05T20:21:54.766Z,99.90
2022-10-05T20:24:26.836Z,99.90
2022-10-05T20:27:16.074Z,99.90
2022-10-05T20:29:45.851Z,99.90
2022-10-05T20:32:16.304Z,99.90
2022-10-05T20:34:45.833Z,99.90
2022-10-05T20:37:15.995Z,99.90
2022-10-05T20:39:44.732Z,99.90
2022-10-05T20:42:13.387Z,99.90
2022-10-05T20:44:42.078Z,99.90
2022-10-05T20:47:11.408Z,99.90
2022-10-05T20:49:42.226Z,99.90
2022-10-05T20:52:11.976Z,99.90
2022-10-05T20:54:40.769Z,99.90
2022-10-05T20:57:10.073Z,99.90
2022-10-05T20:59:38.662Z,99.90
2022-10-05T21:02:07.400Z,99.90
2022-10-05T21:04:41.205Z,99.90
2022-10-05T21:07:10.638Z,99.90
2022-10-05T21:09:40.578Z,99.90
2022-10-05T21:12:09.347Z,99.90
2022-10-05T21:14:38.902Z,99.90
2022-10-05T21:17:07.911Z,99.90
2022-10-05T21:19:42.452Z,99.90
2022-10-05T21:22:11.663Z,99.90
2022-10-05T21:24:40.886Z,99.90
2022-10-05T21:27:10.744Z,99.90
2022-10-05T21:29:42.150Z,99.90
2022-10-05T21:32:12.651Z,99.90
2022-10-05T21:34:41.426Z,99.90
2022-10-05T21:37:10.107Z,99.90
2022-10-05T21:39:38.656Z,99.90
2022-10-05T21:42:07.218Z,99.90
2022-10-05T21:44:35.776Z,99.90
2022-10-05T21:47:05.389Z,99.90
2022-10-05T21:49:34.300Z,99.90
2022-10-05T21:52:03.260Z,99.90
2022-10-05T21:54:33.464Z,99.90
2022-10-05T21:57:02.265Z,99.90
2022-10-05T21:59:32.881Z,99.90
2022-10-05T22:02:01.920Z,99.90
2022-10-05T22:04:30.476Z,99.90
2022-10-05T22:06:59.089Z,99.90
2022-10-05T22:09:27.681Z,99.90
2022-10-05T22:11:56.285Z,99.90
2022-10-05T22:14:25.115Z,99.90
2022-10-05T22:16:54.412Z,99.90
2022-10-05T22:19:23.002Z,99.90
2022-10-05T22:21:51.644Z,99.90
2022-10-05T22:24:20.268Z,99.90
2022-10-05T22:26:52.661Z,99.90
2022-10-05T22:29:21.646Z,99.90
2022-10-05T22:31:50.447Z,99.90
2022-10-05T22:34:19.487Z,99.90
2022-10-05T22:36:48.614Z,99.90
2022-10-05T22:39:17.743Z,99.90
2022-10-05T22:41:46.552Z,99.90
2022-10-05T22:44:15.079Z,99.90
2022-10-05T22:46:43.614Z,99.90
2022-10-05T22:49:12.197Z,99.90
2022-10-05T22:51:40.913Z,99.90
2022-10-05T22:54:09.452Z,99.90
2022-10-05T22:56:38.003Z,99.90
2022-10-05T22:59:06.671Z,99.90
2022-10-05T23:01:35.202Z,99.90
2022-10-05T23:04:05.623Z,99.90
2022-10-05T23:06:34.155Z,99.90
2022-10-05T23:09:02.671Z,99.90
2022-10-05T23:11:32.547Z,99.90
2022-10-05T23:14:01.599Z,99.90
2022-10-05T23:16:30.897Z,99.90
2022-10-05T23:19:00.389Z,99.90
2022-10-05T23:21:30.413Z,99.90
2022-10-05T23:23:59.270Z,99.90
2022-10-05T23:26:27.930Z,99.90
2022-10-05T23:28:56.478Z,99.90
2022-10-05T23:31:28.149Z,99.90
2022-10-05T23:33:56.795Z,99.90
2022-10-05T23:36:28.750Z,99.90
2022-10-05T23:38:57.278Z,99.90
2022-10-05T23:41:27.090Z,99.90
2022-10-05T23:43:58.332Z,99.90
2022-10-05T23:46:26.957Z,99.90
2022-10-05T23:48:55.591Z,99.90
2022-10-05T23:51:24.230Z,99.90
2022-10-05T23:53:52.819Z,99.90
2022-10-05T23:56:21.346Z,99.90
2022-10-05T23:58:49.925Z,99.90
